sensor_id;sensor_type;location;lat;lon;timestamp;P1;durP1;ratioP1;P2;durP2;ratioP2
14191;SDS011;7177;48.572;7.838;2023-07-24T00:00:40;11.37;;;7.60;;
14191;SDS011;7177;48.572;7.838;2023-07-24T00:03:06;10.60;;;7.40;;
14191;SDS011;7177;48.572;7.838;2023-07-24T00:05:32;12.90;;;7.77;;
14191;SDS011;7177;48.572;7.838;2023-07-24T00:07:57;12.47;;;8.17;;
14191;SDS011;7177;48.572;7.838;2023-07-24T00:10:23;11.00;;;7.50;;
14191;SDS011;7177;48.572;7.838;2023-07-24T00:12:48;11.33;;;7.43;;
14191;SDS011;7177;48.572;7.838;2023-07-24T00:15:14;12.43;;;7.57;;
14191;SDS011;7177;48.572;7.838;2023-07-24T00:17:39;11.03;;;7.40;;
14191;SDS011;7177;48.572;7.838;2023-07-24T00:20:05;10.63;;;7.60;;
14191;SDS011;7177;48.572;7.838;2023-07-24T00:22:31;11.50;;;7.97;;
14191;SDS011;7177;48.572;7.838;2023-07-24T00:24:57;11.17;;;7.87;;
14191;SDS011;7177;48.572;7.838;2023-07-24T00:27:22;10.90;;;7.30;;
14191;SDS011;7177;48.572;7.838;2023-07-24T00:29:48;10.03;;;7.63;;
14191;SDS011;7177;48.572;7.838;2023-07-24T00:32:13;10.80;;;7.37;;
14191;SDS011;7177;48.572;7.838;2023-07-24T00:34:39;10.50;;;7.37;;
14191;SDS011;7177;48.572;7.838;2023-07-24T00:37:05;11.03;;;7.53;;
14191;SDS011;7177;48.572;7.838;2023-07-24T00:39:30;12.80;;;7.03;;
14191;SDS011;7177;48.572;7.838;2023-07-24T00:41:56;9.63;;;7.30;;
14191;SDS011;7177;48.572;7.838;2023-07-24T00:44:21;11.07;;;7.67;;
14191;SDS011;7177;48.572;7.838;2023-07-24T00:46:47;10.40;;;7.47;;
14191;SDS011;7177;48.572;7.838;2023-07-24T00:49:13;11.67;;;7.73;;
14191;SDS011;7177;48.572;7.838;2023-07-24T00:51:38;13.23;;;8.03;;
14191;SDS011;7177;48.572;7.838;2023-07-24T00:54:04;12.37;;;7.77;;
14191;SDS011;7177;48.572;7.838;2023-07-24T00:56:32;11.57;;;8.13;;
14191;SDS011;7177;48.572;7.838;2023-07-24T00:58:58;10.17;;;7.47;;
14191;SDS011;7177;48.572;7.838;2023-07-24T01:01:26;11.00;;;6.83;;
14191;SDS011;7177;48.572;7.838;2023-07-24T01:03:52;9.87;;;7.10;;
14191;SDS011;7177;48.572;7.838;2023-07-24T01:06:18;11.37;;;7.30;;
14191;SDS011;7177;48.572;7.838;2023-07-24T01:08:44;10.83;;;7.47;;
14191;SDS011;7177;48.572;7.838;2023-07-24T01:11:10;11.17;;;7.40;;
14191;SDS011;7177;48.572;7.838;2023-07-24T01:13:42;10.60;;;7.70;;
14191;SDS011;7177;48.572;7.838;2023-07-24T01:16:14;10.00;;;7.47;;
14191;SDS011;7177;48.572;7.838;2023-07-24T01:18:44;8.90;;;7.03;;
14191;SDS011;7177;48.572;7.838;2023-07-24T01:21:11;11.27;;;7.87;;
14191;SDS011;7177;48.572;7.838;2023-07-24T01:23:59;11.73;;;8.00;;
14191;SDS011;7177;48.572;7.838;2023-07-24T01:26:46;9.70;;;6.93;;
14191;SDS011;7177;48.572;7.838;2023-07-24T01:29:12;10.60;;;6.80;;
14191;SDS011;7177;48.572;7.838;2023-07-24T01:31:38;10.00;;;6.97;;
14191;SDS011;7177;48.572;7.838;2023-07-24T01:34:03;9.60;;;7.40;;
14191;SDS011;7177;48.572;7.838;2023-07-24T01:36:29;11.47;;;7.73;;
14191;SDS011;7177;48.572;7.838;2023-07-24T01:38:54;9.40;;;7.17;;
14191;SDS011;7177;48.572;7.838;2023-07-24T01:41:20;10.07;;;7.20;;
14191;SDS011;7177;48.572;7.838;2023-07-24T01:43:46;9.33;;;6.60;;
14191;SDS011;7177;48.572;7.838;2023-07-24T01:46:12;9.77;;;7.20;;
14191;SDS011;7177;48.572;7.838;2023-07-24T01:48:37;10.80;;;7.57;;
14191;SDS011;7177;48.572;7.838;2023-07-24T01:51:03;10.43;;;7.73;;
14191;SDS011;7177;48.572;7.838;2023-07-24T01:53:28;9.97;;;7.47;;
14191;SDS011;7177;48.572;7.838;2023-07-24T01:55:54;10.73;;;7.70;;
14191;SDS011;7177;48.572;7.838;2023-07-24T01:58:19;10.73;;;6.90;;
14191;SDS011;7177;48.572;7.838;2023-07-24T02:00:45;9.47;;;6.63;;
14191;SDS011;7177;48.572;7.838;2023-07-24T02:03:10;10.90;;;7.47;;
14191;SDS011;7177;48.572;7.838;2023-07-24T02:05:36;10.30;;;7.20;;
14191;SDS011;7177;48.572;7.838;2023-07-24T02:08:01;11.03;;;8.07;;
14191;SDS011;7177;48.572;7.838;2023-07-24T02:10:27;10.20;;;7.33;;
14191;SDS011;7177;48.572;7.838;2023-07-24T02:12:53;10.73;;;7.30;;
14191;SDS011;7177;48.572;7.838;2023-07-24T02:15:18;12.13;;;8.77;;
14191;SDS011;7177;48.572;7.838;2023-07-24T02:17:44;10.10;;;7.53;;
14191;SDS011;7177;48.572;7.838;2023-07-24T02:20:09;10.97;;;7.93;;
14191;SDS011;7177;48.572;7.838;2023-07-24T02:22:35;10.97;;;7.20;;
14191;SDS011;7177;48.572;7.838;2023-07-24T02:25:00;10.83;;;7.60;;
14191;SDS011;7177;48.572;7.838;2023-07-24T02:27:30;11.47;;;8.07;;
14191;SDS011;7177;48.572;7.838;2023-07-24T02:29:59;10.30;;;7.80;;
14191;SDS011;7177;48.572;7.838;2023-07-24T02:32:25;10.53;;;7.77;;
14191;SDS011;7177;48.572;7.838;2023-07-24T02:34:51;10.63;;;7.40;;
14191;SDS011;7177;48.572;7.838;2023-07-24T02:37:17;11.13;;;8.40;;
14191;SDS011;7177;48.572;7.838;2023-07-24T02:39:43;12.20;;;8.80;;
14191;SDS011;7177;48.572;7.838;2023-07-24T02:42:09;11.37;;;8.40;;
14191;SDS011;7177;48.572;7.838;2023-07-24T02:44:35;14.30;;;8.90;;
14191;SDS011;7177;48.572;7.838;2023-07-24T02:47:00;12.33;;;8.17;;
14191;SDS011;7177;48.572;7.838;2023-07-24T02:49:26;13.23;;;8.90;;
14191;SDS011;7177;48.572;7.838;2023-07-24T02:51:51;11.53;;;7.77;;
14191;SDS011;7177;48.572;7.838;2023-07-24T02:54:17;11.27;;;7.63;;
14191;SDS011;7177;48.572;7.838;2023-07-24T02:56:42;10.10;;;7.83;;
14191;SDS011;7177;48.572;7.838;2023-07-24T02:59:08;10.73;;;7.70;;
14191;SDS011;7177;48.572;7.838;2023-07-24T03:01:33;11.37;;;8.23;;
14191;SDS011;7177;48.572;7.838;2023-07-24T03:03:59;11.57;;;8.23;;
14191;SDS011;7177;48.572;7.838;2023-07-24T03:06:25;13.03;;;8.00;;
14191;SDS011;7177;48.572;7.838;2023-07-24T03:08:50;13.30;;;7.77;;
14191;SDS011;7177;48.572;7.838;2023-07-24T03:11:16;10.20;;;7.10;;
14191;SDS011;7177;48.572;7.838;2023-07-24T03:13:41;12.10;;;8.43;;
14191;SDS011;7177;48.572;7.838;2023-07-24T03:16:08;11.17;;;8.40;;
14191;SDS011;7177;48.572;7.838;2023-07-24T03:18:33;10.37;;;7.50;;
14191;SDS011;7177;48.572;7.838;2023-07-24T03:20:59;10.93;;;8.17;;
14191;SDS011;7177;48.572;7.838;2023-07-24T03:23:25;14.53;;;9.20;;
14191;SDS011;7177;48.572;7.838;2023-07-24T03:25:51;11.60;;;8.30;;
14191;SDS011;7177;48.572;7.838;2023-07-24T03:28:17;12.03;;;8.47;;
14191;SDS011;7177;48.572;7.838;2023-07-24T03:30:42;11.37;;;8.40;;
14191;SDS011;7177;48.572;7.838;2023-07-24T03:33:08;14.77;;;8.73;;
14191;SDS011;7177;48.572;7.838;2023-07-24T03:35:33;12.10;;;8.20;;
14191;SDS011;7177;48.572;7.838;2023-07-24T03:37:59;11.03;;;8.00;;
14191;SDS011;7177;48.572;7.838;2023-07-24T03:40:25;10.83;;;8.20;;
14191;SDS011;7177;48.572;7.838;2023-07-24T03:42:50;10.93;;;8.10;;
14191;SDS011;7177;48.572;7.838;2023-07-24T03:45:16;10.50;;;7.27;;
14191;SDS011;7177;48.572;7.838;2023-07-24T03:47:41;11.43;;;7.83;;
14191;SDS011;7177;48.572;7.838;2023-07-24T03:50:07;10.60;;;7.60;;
14191;SDS011;7177;48.572;7.838;2023-07-24T03:52:33;11.67;;;7.17;;
14191;SDS011;7177;48.572;7.838;2023-07-24T03:54:58;11.63;;;8.17;;
14191;SDS011;7177;48.572;7.838;2023-07-24T03:57:24;12.57;;;8.07;;
14191;SDS011;7177;48.572;7.838;2023-07-24T03:59:49;12.03;;;8.43;;
14191;SDS011;7177;48.572;7.838;2023-07-24T04:02:15;11.00;;;7.63;;
14191;SDS011;7177;48.572;7.838;2023-07-24T04:04:40;15.10;;;8.20;;
14191;SDS011;7177;48.572;7.838;2023-07-24T04:07:06;11.00;;;7.67;;
14191;SDS011;7177;48.572;7.838;2023-07-24T04:09:31;11.80;;;7.80;;
14191;SDS011;7177;48.572;7.838;2023-07-24T04:11:57;9.13;;;7.10;;
14191;SDS011;7177;48.572;7.838;2023-07-24T04:14:23;11.03;;;7.73;;
14191;SDS011;7177;48.572;7.838;2023-07-24T04:16:48;12.60;;;7.80;;
14191;SDS011;7177;48.572;7.838;2023-07-24T04:19:14;9.73;;;7.07;;
14191;SDS011;7177;48.572;7.838;2023-07-24T04:21:39;10.70;;;7.33;;
14191;SDS011;7177;48.572;7.838;2023-07-24T04:24:05;10.30;;;7.00;;
14191;SDS011;7177;48.572;7.838;2023-07-24T04:26:30;11.47;;;7.67;;
14191;SDS011;7177;48.572;7.838;2023-07-24T04:28:56;11.63;;;7.13;;
14191;SDS011;7177;48.572;7.838;2023-07-24T04:31:21;12.50;;;8.17;;
14191;SDS011;7177;48.572;7.838;2023-07-24T04:33:47;11.50;;;7.60;;
14191;SDS011;7177;48.572;7.838;2023-07-24T04:36:12;11.03;;;7.63;;
14191;SDS011;7177;48.572;7.838;2023-07-24T04:38:38;13.33;;;7.83;;
14191;SDS011;7177;48.572;7.838;2023-07-24T04:41:03;10.33;;;7.40;;
14191;SDS011;7177;48.572;7.838;2023-07-24T04:43:29;11.77;;;8.07;;
14191;SDS011;7177;48.572;7.838;2023-07-24T04:45:55;10.93;;;7.63;;
14191;SDS011;7177;48.572;7.838;2023-07-24T04:48:20;12.10;;;7.90;;
14191;SDS011;7177;48.572;7.838;2023-07-24T04:50:46;12.03;;;8.20;;
14191;SDS011;7177;48.572;7.838;2023-07-24T04:53:12;11.83;;;7.77;;
14191;SDS011;7177;48.572;7.838;2023-07-24T04:55:37;10.10;;;8.00;;
14191;SDS011;7177;48.572;7.838;2023-07-24T04:58:03;11.13;;;7.57;;
14191;SDS011;7177;48.572;7.838;2023-07-24T05:00:28;11.57;;;7.80;;
14191;SDS011;7177;48.572;7.838;2023-07-24T05:02:54;12.13;;;7.50;;
14191;SDS011;7177;48.572;7.838;2023-07-24T05:05:19;13.03;;;7.70;;
14191;SDS011;7177;48.572;7.838;2023-07-24T05:07:45;10.30;;;7.73;;
14191;SDS011;7177;48.572;7.838;2023-07-24T05:10:10;12.23;;;7.50;;
14191;SDS011;7177;48.572;7.838;2023-07-24T05:12:40;13.00;;;8.03;;
14191;SDS011;7177;48.572;7.838;2023-07-24T05:15:06;11.53;;;7.60;;
14191;SDS011;7177;48.572;7.838;2023-07-24T05:17:32;9.80;;;6.87;;
14191;SDS011;7177;48.572;7.838;2023-07-24T05:19:57;11.53;;;8.00;;
14191;SDS011;7177;48.572;7.838;2023-07-24T05:22:23;11.73;;;8.57;;
14191;SDS011;7177;48.572;7.838;2023-07-24T05:24:48;13.23;;;7.90;;
14191;SDS011;7177;48.572;7.838;2023-07-24T05:27:14;12.83;;;7.90;;
14191;SDS011;7177;48.572;7.838;2023-07-24T05:29:41;10.37;;;7.57;;
14191;SDS011;7177;48.572;7.838;2023-07-24T05:32:06;13.73;;;8.20;;
14191;SDS011;7177;48.572;7.838;2023-07-24T05:34:32;10.90;;;7.87;;
14191;SDS011;7177;48.572;7.838;2023-07-24T05:36:57;15.93;;;8.13;;
14191;SDS011;7177;48.572;7.838;2023-07-24T05:39:23;12.93;;;8.27;;
14191;SDS011;7177;48.572;7.838;2023-07-24T05:41:48;13.57;;;8.73;;
14191;SDS011;7177;48.572;7.838;2023-07-24T05:44:14;14.27;;;8.57;;
14191;SDS011;7177;48.572;7.838;2023-07-24T05:46:39;11.70;;;8.77;;
14191;SDS011;7177;48.572;7.838;2023-07-24T05:49:05;15.90;;;8.93;;
14191;SDS011;7177;48.572;7.838;2023-07-24T05:51:30;11.57;;;8.80;;
14191;SDS011;7177;48.572;7.838;2023-07-24T05:53:56;12.90;;;9.03;;
14191;SDS011;7177;48.572;7.838;2023-07-24T05:56:21;15.37;;;9.17;;
14191;SDS011;7177;48.572;7.838;2023-07-24T05:58:47;15.43;;;9.77;;
14191;SDS011;7177;48.572;7.838;2023-07-24T06:01:12;12.27;;;8.40;;
14191;SDS011;7177;48.572;7.838;2023-07-24T06:03:38;14.63;;;8.63;;
14191;SDS011;7177;48.572;7.838;2023-07-24T06:06:04;13.70;;;8.87;;
14191;SDS011;7177;48.572;7.838;2023-07-24T06:08:29;14.50;;;9.50;;
14191;SDS011;7177;48.572;7.838;2023-07-24T06:10:55;13.60;;;8.20;;
14191;SDS011;7177;48.572;7.838;2023-07-24T06:13:20;15.67;;;9.27;;
14191;SDS011;7177;48.572;7.838;2023-07-24T06:15:49;13.07;;;8.70;;
14191;SDS011;7177;48.572;7.838;2023-07-24T06:18:17;12.40;;;8.97;;
14191;SDS011;7177;48.572;7.838;2023-07-24T06:20:42;15.77;;;8.80;;
14191;SDS011;7177;48.572;7.838;2023-07-24T06:23:08;15.60;;;8.50;;
14191;SDS011;7177;48.572;7.838;2023-07-24T06:25:33;12.53;;;8.67;;
14191;SDS011;7177;48.572;7.838;2023-07-24T06:27:59;14.10;;;8.70;;
14191;SDS011;7177;48.572;7.838;2023-07-24T06:30:25;11.37;;;7.90;;
14191;SDS011;7177;48.572;7.838;2023-07-24T06:32:50;12.53;;;8.67;;
14191;SDS011;7177;48.572;7.838;2023-07-24T06:35:16;12.47;;;9.07;;
14191;SDS011;7177;48.572;7.838;2023-07-24T06:37:42;15.00;;;8.70;;
14191;SDS011;7177;48.572;7.838;2023-07-24T06:40:07;12.73;;;9.60;;
14191;SDS011;7177;48.572;7.838;2023-07-24T06:42:34;17.07;;;9.57;;
14191;SDS011;7177;48.572;7.838;2023-07-24T06:44:59;15.73;;;9.20;;
14191;SDS011;7177;48.572;7.838;2023-07-24T06:47:25;15.47;;;9.80;;
14191;SDS011;7177;48.572;7.838;2023-07-24T06:49:51;15.20;;;9.00;;
14191;SDS011;7177;48.572;7.838;2023-07-24T06:52:16;16.13;;;9.30;;
14191;SDS011;7177;48.572;7.838;2023-07-24T06:54:42;15.67;;;8.80;;
14191;SDS011;7177;48.572;7.838;2023-07-24T06:57:07;13.53;;;8.70;;
14191;SDS011;7177;48.572;7.838;2023-07-24T06:59:33;15.40;;;10.10;;
14191;SDS011;7177;48.572;7.838;2023-07-24T07:01:58;16.77;;;9.73;;
14191;SDS011;7177;48.572;7.838;2023-07-24T07:04:24;14.40;;;9.93;;
14191;SDS011;7177;48.572;7.838;2023-07-24T07:06:49;18.80;;;9.20;;
14191;SDS011;7177;48.572;7.838;2023-07-24T07:09:15;17.17;;;9.53;;
14191;SDS011;7177;48.572;7.838;2023-07-24T07:11:40;18.57;;;10.10;;
14191;SDS011;7177;48.572;7.838;2023-07-24T07:14:08;18.63;;;10.00;;
14191;SDS011;7177;48.572;7.838;2023-07-24T07:16:34;15.73;;;9.30;;
14191;SDS011;7177;48.572;7.838;2023-07-24T07:19:00;14.53;;;9.47;;
14191;SDS011;7177;48.572;7.838;2023-07-24T07:21:25;18.17;;;9.23;;
14191;SDS011;7177;48.572;7.838;2023-07-24T07:23:51;16.80;;;9.53;;
14191;SDS011;7177;48.572;7.838;2023-07-24T07:26:16;17.23;;;9.93;;
14191;SDS011;7177;48.572;7.838;2023-07-24T07:28:42;15.47;;;10.60;;
14191;SDS011;7177;48.572;7.838;2023-07-24T07:31:10;16.50;;;9.73;;
14191;SDS011;7177;48.572;7.838;2023-07-24T07:33:35;16.40;;;9.37;;
14191;SDS011;7177;48.572;7.838;2023-07-24T07:36:01;15.90;;;9.03;;
14191;SDS011;7177;48.572;7.838;2023-07-24T07:38:28;18.30;;;10.63;;
14191;SDS011;7177;48.572;7.838;2023-07-24T07:40:54;17.53;;;9.90;;
14191;SDS011;7177;48.572;7.838;2023-07-24T07:43:20;17.37;;;9.73;;
14191;SDS011;7177;48.572;7.838;2023-07-24T07:45:46;19.27;;;9.60;;
14191;SDS011;7177;48.572;7.838;2023-07-24T07:48:12;14.43;;;9.50;;
14191;SDS011;7177;48.572;7.838;2023-07-24T07:50:37;13.43;;;9.20;;
14191;SDS011;7177;48.572;7.838;2023-07-24T07:53:03;13.03;;;8.77;;
14191;SDS011;7177;48.572;7.838;2023-07-24T07:55:28;11.90;;;8.60;;
14191;SDS011;7177;48.572;7.838;2023-07-24T07:57:54;12.03;;;9.50;;
14191;SDS011;7177;48.572;7.838;2023-07-24T08:00:20;15.47;;;8.90;;
14191;SDS011;7177;48.572;7.838;2023-07-24T08:02:45;15.33;;;9.00;;
14191;SDS011;7177;48.572;7.838;2023-07-24T08:05:11;15.13;;;9.67;;
14191;SDS011;7177;48.572;7.838;2023-07-24T08:07:36;16.17;;;8.77;;
14191;SDS011;7177;48.572;7.838;2023-07-24T08:10:02;12.30;;;8.37;;
14191;SDS011;7177;48.572;7.838;2023-07-24T08:12:28;17.60;;;9.17;;
14191;SDS011;7177;48.572;7.838;2023-07-24T08:14:54;17.10;;;9.50;;
14191;SDS011;7177;48.572;7.838;2023-07-24T08:17:21;13.60;;;9.20;;
14191;SDS011;7177;48.572;7.838;2023-07-24T08:19:46;14.30;;;8.30;;
14191;SDS011;7177;48.572;7.838;2023-07-24T08:22:12;17.10;;;9.20;;
14191;SDS011;7177;48.572;7.838;2023-07-24T08:24:37;13.87;;;8.33;;
14191;SDS011;7177;48.572;7.838;2023-07-24T08:27:03;11.90;;;8.10;;
14191;SDS011;7177;48.572;7.838;2023-07-24T08:29:29;14.77;;;8.07;;
14191;SDS011;7177;48.572;7.838;2023-07-24T08:31:54;18.83;;;8.23;;
14191;SDS011;7177;48.572;7.838;2023-07-24T08:34:20;14.47;;;8.40;;
14191;SDS011;7177;48.572;7.838;2023-07-24T08:36:45;14.17;;;8.60;;
14191;SDS011;7177;48.572;7.838;2023-07-24T08:39:11;16.10;;;8.57;;
14191;SDS011;7177;48.572;7.838;2023-07-24T08:41:37;12.30;;;7.67;;
14191;SDS011;7177;48.572;7.838;2023-07-24T08:44:03;12.17;;;8.07;;
14191;SDS011;7177;48.572;7.838;2023-07-24T08:46:34;14.93;;;8.37;;
14191;SDS011;7177;48.572;7.838;2023-07-24T08:49:00;10.47;;;7.30;;
14191;SDS011;7177;48.572;7.838;2023-07-24T08:51:26;10.57;;;7.30;;
14191;SDS011;7177;48.572;7.838;2023-07-24T08:53:53;14.03;;;7.57;;
14191;SDS011;7177;48.572;7.838;2023-07-24T08:56:19;16.10;;;8.27;;
14191;SDS011;7177;48.572;7.838;2023-07-24T08:58:44;13.50;;;6.93;;
14191;SDS011;7177;48.572;7.838;2023-07-24T09:01:10;11.77;;;6.83;;
14191;SDS011;7177;48.572;7.838;2023-07-24T09:03:36;15.40;;;7.23;;
14191;SDS011;7177;48.572;7.838;2023-07-24T09:06:02;10.60;;;7.23;;
14191;SDS011;7177;48.572;7.838;2023-07-24T09:08:32;14.97;;;8.20;;
14191;SDS011;7177;48.572;7.838;2023-07-24T09:10:58;11.10;;;7.63;;
14191;SDS011;7177;48.572;7.838;2023-07-24T09:13:24;15.47;;;7.33;;
14191;SDS011;7177;48.572;7.838;2023-07-24T09:15:50;14.03;;;7.43;;
14191;SDS011;7177;48.572;7.838;2023-07-24T09:18:16;11.63;;;7.63;;
14191;SDS011;7177;48.572;7.838;2023-07-24T09:20:43;14.63;;;8.60;;
14191;SDS011;7177;48.572;7.838;2023-07-24T09:23:10;12.73;;;8.53;;
14191;SDS011;7177;48.572;7.838;2023-07-24T09:25:37;9.37;;;6.97;;
14191;SDS011;7177;48.572;7.838;2023-07-24T09:30:36;12.83;;;7.77;;
14191;SDS011;7177;48.572;7.838;2023-07-24T09:33:03;12.47;;;8.03;;
14191;SDS011;7177;48.572;7.838;2023-07-24T09:35:28;13.10;;;7.40;;
14191;SDS011;7177;48.572;7.838;2023-07-24T09:40:37;13.23;;;8.23;;
14191;SDS011;7177;48.572;7.838;2023-07-24T09:45:45;12.47;;;8.97;;
14191;SDS011;7177;48.572;7.838;2023-07-24T09:48:12;12.47;;;8.43;;
14191;SDS011;7177;48.572;7.838;2023-07-24T09:50:40;13.37;;;8.27;;
14191;SDS011;7177;48.572;7.838;2023-07-24T09:53:06;13.40;;;8.53;;
14191;SDS011;7177;48.572;7.838;2023-07-24T09:55:54;13.03;;;8.00;;
14191;SDS011;7177;48.572;7.838;2023-07-24T09:58:23;12.93;;;8.03;;
14191;SDS011;7177;48.572;7.838;2023-07-24T10:00:50;10.33;;;7.20;;
14191;SDS011;7177;48.572;7.838;2023-07-24T10:03:17;12.83;;;7.47;;
14191;SDS011;7177;48.572;7.838;2023-07-24T10:05:44;13.70;;;7.03;;
14191;SDS011;7177;48.572;7.838;2023-07-24T10:08:10;11.17;;;7.20;;
14191;SDS011;7177;48.572;7.838;2023-07-24T10:10:37;9.40;;;6.57;;
14191;SDS011;7177;48.572;7.838;2023-07-24T10:13:03;13.07;;;7.70;;
14191;SDS011;7177;48.572;7.838;2023-07-24T10:15:30;10.80;;;6.87;;
14191;SDS011;7177;48.572;7.838;2023-07-24T10:18:03;12.20;;;7.57;;
14191;SDS011;7177;48.572;7.838;2023-07-24T10:20:35;11.53;;;7.87;;
14191;SDS011;7177;48.572;7.838;2023-07-24T10:23:05;10.90;;;7.13;;
14191;SDS011;7177;48.572;7.838;2023-07-24T10:25:32;11.23;;;6.70;;
14191;SDS011;7177;48.572;7.838;2023-07-24T10:28:03;12.33;;;7.73;;
14191;SDS011;7177;48.572;7.838;2023-07-24T10:30:35;12.43;;;7.40;;
14191;SDS011;7177;48.572;7.838;2023-07-24T10:33:04;12.13;;;7.37;;
14191;SDS011;7177;48.572;7.838;2023-07-24T10:35:42;10.97;;;7.17;;
14191;SDS011;7177;48.572;7.838;2023-07-24T10:38:12;11.83;;;7.27;;
14191;SDS011;7177;48.572;7.838;2023-07-24T10:40:41;13.87;;;8.10;;
14191;SDS011;7177;48.572;7.838;2023-07-24T10:43:08;9.43;;;7.07;;
14191;SDS011;7177;48.572;7.838;2023-07-24T10:45:53;11.47;;;7.10;;
14191;SDS011;7177;48.572;7.838;2023-07-24T10:48:23;11.47;;;7.50;;
14191;SDS011;7177;48.572;7.838;2023-07-24T10:50:50;12.17;;;7.77;;
14191;SDS011;7177;48.572;7.838;2023-07-24T10:53:17;11.27;;;7.30;;
14191;SDS011;7177;48.572;7.838;2023-07-24T10:55:45;12.60;;;7.47;;
14191;SDS011;7177;48.572;7.838;2023-07-24T10:58:12;12.03;;;7.40;;
14191;SDS011;7177;48.572;7.838;2023-07-24T11:00:39;10.77;;;7.47;;
14191;SDS011;7177;48.572;7.838;2023-07-24T11:03:09;14.10;;;7.37;;
14191;SDS011;7177;48.572;7.838;2023-07-24T11:05:38;12.70;;;6.60;;
14191;SDS011;7177;48.572;7.838;2023-07-24T11:08:17;10.93;;;7.67;;
14191;SDS011;7177;48.572;7.838;2023-07-24T11:10:45;11.20;;;7.33;;
14191;SDS011;7177;48.572;7.838;2023-07-24T11:13:12;12.37;;;7.43;;
14191;SDS011;7177;48.572;7.838;2023-07-24T11:15:38;9.30;;;7.17;;
14191;SDS011;7177;48.572;7.838;2023-07-24T11:18:04;12.00;;;6.53;;
14191;SDS011;7177;48.572;7.838;2023-07-24T11:20:33;9.37;;;7.47;;
14191;SDS011;7177;48.572;7.838;2023-07-24T11:23:03;9.53;;;6.60;;
14191;SDS011;7177;48.572;7.838;2023-07-24T11:25:28;9.90;;;6.93;;
14191;SDS011;7177;48.572;7.838;2023-07-24T11:27:54;15.73;;;7.90;;
14191;SDS011;7177;48.572;7.838;2023-07-24T11:30:20;11.20;;;7.43;;
14191;SDS011;7177;48.572;7.838;2023-07-24T11:32:46;13.90;;;7.73;;
14191;SDS011;7177;48.572;7.838;2023-07-24T11:35:13;13.33;;;7.37;;
14191;SDS011;7177;48.572;7.838;2023-07-24T11:37:39;13.57;;;7.87;;
14191;SDS011;7177;48.572;7.838;2023-07-24T11:40:05;11.70;;;7.03;;
14191;SDS011;7177;48.572;7.838;2023-07-24T11:42:38;10.50;;;7.37;;
14191;SDS011;7177;48.572;7.838;2023-07-24T11:45:05;10.93;;;7.17;;
14191;SDS011;7177;48.572;7.838;2023-07-24T11:47:40;9.43;;;6.73;;
14191;SDS011;7177;48.572;7.838;2023-07-24T11:50:07;10.03;;;7.20;;
14191;SDS011;7177;48.572;7.838;2023-07-24T11:52:39;10.87;;;7.00;;
14191;SDS011;7177;48.572;7.838;2023-07-24T11:55:13;11.87;;;7.87;;
14191;SDS011;7177;48.572;7.838;2023-07-24T11:57:40;12.83;;;6.80;;
14191;SDS011;7177;48.572;7.838;2023-07-24T12:00:16;10.83;;;7.50;;
14191;SDS011;7177;48.572;7.838;2023-07-24T12:02:44;11.57;;;6.43;;
14191;SDS011;7177;48.572;7.838;2023-07-24T12:05:10;14.73;;;7.43;;
14191;SDS011;7177;48.572;7.838;2023-07-24T12:07:35;8.83;;;6.30;;
14191;SDS011;7177;48.572;7.838;2023-07-24T12:10:02;8.70;;;6.47;;
14191;SDS011;7177;48.572;7.838;2023-07-24T12:12:45;9.27;;;6.60;;
14191;SDS011;7177;48.572;7.838;2023-07-24T12:15:12;9.97;;;6.20;;
14191;SDS011;7177;48.572;7.838;2023-07-24T12:17:38;9.07;;;6.40;;
14191;SDS011;7177;48.572;7.838;2023-07-24T12:20:04;10.47;;;6.07;;
14191;SDS011;7177;48.572;7.838;2023-07-24T12:22:34;8.40;;;6.13;;
14191;SDS011;7177;48.572;7.838;2023-07-24T12:25:01;9.53;;;6.57;;
14191;SDS011;7177;48.572;7.838;2023-07-24T12:27:27;12.20;;;6.77;;
14191;SDS011;7177;48.572;7.838;2023-07-24T12:29:53;13.00;;;8.57;;
14191;SDS011;7177;48.572;7.838;2023-07-24T12:32:19;11.50;;;6.97;;
14191;SDS011;7177;48.572;7.838;2023-07-24T12:34:48;11.63;;;6.83;;
14191;SDS011;7177;48.572;7.838;2023-07-24T12:37:14;11.07;;;6.73;;
14191;SDS011;7177;48.572;7.838;2023-07-24T12:39:40;10.60;;;6.23;;
14191;SDS011;7177;48.572;7.838;2023-07-24T12:42:05;10.60;;;6.93;;
14191;SDS011;7177;48.572;7.838;2023-07-24T12:44:31;10.50;;;6.07;;
14191;SDS011;7177;48.572;7.838;2023-07-24T12:46:57;8.70;;;5.50;;
14191;SDS011;7177;48.572;7.838;2023-07-24T12:49:23;9.27;;;5.53;;
14191;SDS011;7177;48.572;7.838;2023-07-24T12:51:49;9.27;;;6.00;;
14191;SDS011;7177;48.572;7.838;2023-07-24T12:54:14;9.83;;;5.90;;
14191;SDS011;7177;48.572;7.838;2023-07-24T12:56:40;10.57;;;6.00;;
14191;SDS011;7177;48.572;7.838;2023-07-24T12:59:06;9.20;;;5.93;;
14191;SDS011;7177;48.572;7.838;2023-07-24T13:01:31;7.63;;;5.93;;
14191;SDS011;7177;48.572;7.838;2023-07-24T13:03:57;7.33;;;5.53;;
14191;SDS011;7177;48.572;7.838;2023-07-24T13:06:23;10.53;;;5.67;;
14191;SDS011;7177;48.572;7.838;2023-07-24T13:08:49;9.47;;;5.37;;
14191;SDS011;7177;48.572;7.838;2023-07-24T13:11:14;10.73;;;6.33;;
14191;SDS011;7177;48.572;7.838;2023-07-24T13:13:40;7.80;;;5.67;;
14191;SDS011;7177;48.572;7.838;2023-07-24T13:16:05;6.93;;;4.97;;
14191;SDS011;7177;48.572;7.838;2023-07-24T13:18:31;8.43;;;5.47;;
14191;SDS011;7177;48.572;7.838;2023-07-24T13:20:56;10.43;;;5.90;;
14191;SDS011;7177;48.572;7.838;2023-07-24T13:23:22;10.97;;;5.20;;
14191;SDS011;7177;48.572;7.838;2023-07-24T13:25:48;8.00;;;5.37;;
14191;SDS011;7177;48.572;7.838;2023-07-24T13:28:15;10.30;;;5.93;;
14191;SDS011;7177;48.572;7.838;2023-07-24T13:30:41;7.47;;;5.73;;
14191;SDS011;7177;48.572;7.838;2023-07-24T13:33:06;10.03;;;4.90;;
14191;SDS011;7177;48.572;7.838;2023-07-24T13:35:32;5.63;;;4.60;;
14191;SDS011;7177;48.572;7.838;2023-07-24T13:37:57;8.20;;;4.60;;
14191;SDS011;7177;48.572;7.838;2023-07-24T13:40:23;5.93;;;4.80;;
14191;SDS011;7177;48.572;7.838;2023-07-24T13:42:48;10.87;;;4.67;;
14191;SDS011;7177;48.572;7.838;2023-07-24T13:45:14;7.87;;;5.20;;
14191;SDS011;7177;48.572;7.838;2023-07-24T13:47:39;6.27;;;4.67;;
14191;SDS011;7177;48.572;7.838;2023-07-24T13:50:05;9.00;;;4.87;;
14191;SDS011;7177;48.572;7.838;2023-07-24T13:52:31;7.03;;;4.77;;
14191;SDS011;7177;48.572;7.838;2023-07-24T13:54:57;10.60;;;4.40;;
14191;SDS011;7177;48.572;7.838;2023-07-24T13:57:22;7.97;;;4.70;;
14191;SDS011;7177;48.572;7.838;2023-07-24T13:59:48;14.97;;;5.03;;
14191;SDS011;7177;48.572;7.838;2023-07-24T14:02:13;8.80;;;4.40;;
14191;SDS011;7177;48.572;7.838;2023-07-24T14:04:39;7.87;;;4.83;;
14191;SDS011;7177;48.572;7.838;2023-07-24T14:07:04;6.57;;;4.50;;
14191;SDS011;7177;48.572;7.838;2023-07-24T14:09:30;6.97;;;4.67;;
14191;SDS011;7177;48.572;7.838;2023-07-24T14:11:57;10.07;;;4.43;;
14191;SDS011;7177;48.572;7.838;2023-07-24T14:14:25;5.93;;;4.40;;
14191;SDS011;7177;48.572;7.838;2023-07-24T14:16:51;5.87;;;3.93;;
14191;SDS011;7177;48.572;7.838;2023-07-24T14:19:17;6.07;;;4.80;;
14191;SDS011;7177;48.572;7.838;2023-07-24T14:21:42;6.63;;;4.50;;
14191;SDS011;7177;48.572;7.838;2023-07-24T14:24:09;5.60;;;3.80;;
14191;SDS011;7177;48.572;7.838;2023-07-24T14:26:34;5.03;;;4.27;;
14191;SDS011;7177;48.572;7.838;2023-07-24T14:29:02;6.50;;;4.20;;
14191;SDS011;7177;48.572;7.838;2023-07-24T14:31:28;7.97;;;4.00;;
14191;SDS011;7177;48.572;7.838;2023-07-24T14:33:54;5.53;;;4.23;;
14191;SDS011;7177;48.572;7.838;2023-07-24T14:36:19;8.70;;;4.17;;
14191;SDS011;7177;48.572;7.838;2023-07-24T14:38:45;7.33;;;4.10;;
14191;SDS011;7177;48.572;7.838;2023-07-24T14:41:11;8.37;;;4.43;;
14191;SDS011;7177;48.572;7.838;2023-07-24T14:43:37;7.60;;;4.73;;
14191;SDS011;7177;48.572;7.838;2023-07-24T14:46:06;12.33;;;4.57;;
14191;SDS011;7177;48.572;7.838;2023-07-24T14:48:31;9.33;;;4.80;;
14191;SDS011;7177;48.572;7.838;2023-07-24T14:50:57;8.00;;;4.70;;
14191;SDS011;7177;48.572;7.838;2023-07-24T14:53:22;7.33;;;4.33;;